Main page
METAR-TAF:

METAR-TAF

Airports :

Santa Bernardina International Airport

Durazno, Uruguay

latitude: 33-21S, longitude: 056-30W, elevation: 93 m

Current weather observation

The report was made 33 minutes ago, at 12:00 UTC
Wind 8 kt from the Northwest
Temperature 9°C
Humidity 158%
Pressure 1018 hPa
Visibility 10 km or more
no clouds below 1500 m and no cumulonimbus

METAR: SUDU 121200Z 31008KT CAVOK 09/16 Q1018

Time: 09:33 (12:33 UTC)

Forecast

The report was made 1 hour and 3 minutes ago, at 11:30 UTC
Forecast valid from 12 at 12 UTC to 13 at 12 UTC
Wind 10 kt from the West/Northwest
Visibility 10 km or more
no clouds below 1500 m and no cumulonimbus
Temporary
from 13 at 02 UTC to 13 at 10 UTC
Visibility: 0800 m
Broken clouds at a height of 700 ft
fog

TAF: SUDU 121130Z 1212/1312 30010KT CAVOK TX18/1218Z TN07/1310Z TEMPO 1302/1310 0800 FG BKN007

Weather observations and forecasts of more than 4000 airports (METAR and TAF reports).

The available stations are represented by yellow and red dots on the map.

Hover mouse over dot to see the name of the station.

Then click to see weather observations and forecasts.

To change the map : click on the green buttons with a black cross to zoom in, on the green button with a dash to zoom out, or on the green arrows for adjacent maps.


METAR-TAF: